Terminal Aerodrome Forecast
Issued by NWS

Current Version | Previous Version | Graphics & Text | Print | Product List | Glossary On
Versions: 1 2 3 4 5 6 7 8 9 10 11 12 13 14 15 16 17 18 19 20 21 22 23 24
927
FTUS41 KILN 241136
TAFLCK
TAF
KLCK 241136Z 2412/2512 03005KT P6SM -RA OVC012
     FM241300 05008KT 5SM -RA OVC015
     FM242000 08010KT P6SM VCSH OVC022
      TEMPO 2501/2503 3SM -SHRA SCT012 OVC025
     FM250300 17012KT P6SM SHRA VCTS SCT025 OVC050CB
      TEMPO 2504/2508 4SM -TSRA BKN025CB
     FM250800 21015G27KT P6SM SHRA VCTS SCT025 OVC060CB=

USA.gov is the U.S. government's official web portal to all federal, state and local government web resources and services.